Terminal Aerodrome Forecast
Issued by NWS

Home | Current Version | Previous Version | Text Only | Print | Product List | Glossary On
Versions: 1 2 3 4 5 6 7 8 9 10 11 12 13 14 15 16
000
FTUS41 KGYX 012337
TAFHIE
TAF
KHIE 012337Z 0200/0224 24003KT P6SM -SN OVC050
      TEMPO 0200/0204 3SM -SN BKN025
     FM020600 00000KT P6SM SCT025 BKN050
     FM021200 30006KT P6SM -SN BKN025
     FM021600 29012G20KT 5SM -SHSN BKN025=

USA.gov is the U.S. government's official web portal to all federal, state and local government web resources and services.